Terminal Aerodrome Forecast
Issued by NWS

Home | Current Version | Previous Version | Text Only | Print | Product List | Glossary On
Versions: 1 2 3 4 5 6 7 8 9 10 11 12 13 14
000
FTUS41 KBOX 251735
TAFBED
TAF
KBED 251735Z 2518/2618 11009KT 2SM RA BR OVC008
     FM252000 11009KT 2SM RA BR OVC003 WS020/15040KT
     FM260000 14007KT 6SM BR OVC008
     FM260400 14006KT 1/2SM FG OVC003
     FM261100 21005KT 2SM BR OVC003
     FM261400 25011KT P6SM BKN070
     FM261700 25012G19KT P6SM SCT050=

USA.gov is the U.S. government's official web portal to all federal, state and local government web resources and services.